Country
Station

 

Weather  for  Fort Polk  -  United States    United States

  
25 °C (77 °F)
    
 
 

Current METAR for Fort Polk is :

KPOE 171058Z AUTO 31006KT 8SM CLR 25/23 A3004 RMK AO2 SLP171 T02490234

 

This is a report for Fort Polk - United States.
 
The report was made 20 minutes ago, at 10:58 UTC .
The wind was blowing at a speed of 3.1 meters per second (6.9 miles per hour) from northwest (310°).
 
The temperature was 25 °C (77 °F), with a dew-point at 23 °C (73 °F).
The temperature felt like 26 °C (78 °F).
 
The atmospheric pressure was 1017 hPa (30.04 inHg).
The relative humidity was 88.7%.
 
The sky was clear.
 
The overall visibility was 12.9 kilometers (8.0 miles).
 

 
 
 
 

Country :   A   B   C   D   E   F   G   H   I   J   K   L   M   N   O   P   Q   R   S   T   U   V   W   Y   Z

 

Site Info  |  Disclaimer  |  Credits  |  Privacy
Contact us  |  Add to favorites
© 2013-2018 METARs - All rights reserved